createdAt,value
2022-09-12T00:01:50.576Z,18.50
2022-09-12T00:04:17.322Z,18.40
2022-09-12T00:06:43.943Z,18.40
2022-09-12T00:09:12.187Z,18.40
2022-09-12T00:11:39.678Z,18.30
2022-09-12T00:14:06.890Z,18.30
2022-09-12T00:16:34.370Z,18.30
2022-09-12T00:19:01.700Z,18.20
2022-09-12T00:21:28.350Z,18.20
2022-09-12T00:23:55.304Z,18.10
2022-09-12T00:26:22.016Z,18.10
2022-09-12T00:28:48.702Z,18.10
2022-09-12T00:31:25.189Z,18.10
2022-09-12T00:33:52.218Z,18.10
2022-09-12T00:36:20.236Z,18.00
2022-09-12T00:38:47.489Z,18.00
2022-09-12T00:41:17.267Z,18.00
2022-09-12T00:43:45.515Z,18.00
2022-09-12T00:46:15.192Z,18.00
2022-09-12T00:48:43.826Z,17.90
2022-09-12T00:51:10.755Z,17.90
2022-09-12T00:53:38.345Z,17.90
2022-09-12T00:56:04.971Z,17.90
2022-09-12T00:58:37.168Z,17.80
2022-09-12T01:01:03.881Z,17.80
2022-09-12T01:03:30.541Z,17.80
2022-09-12T01:05:57.098Z,17.80
2022-09-12T01:08:24.923Z,17.80
2022-09-12T01:10:52.227Z,17.70
2022-09-12T01:13:18.890Z,17.70
2022-09-12T01:15:45.819Z,17.70
2022-09-12T01:18:18.994Z,17.70
2022-09-12T01:21:03.938Z,17.60
2022-09-12T01:23:50.748Z,17.50
2022-09-12T01:26:20.395Z,17.50
2022-09-12T01:28:58.007Z,17.50
2022-09-12T01:31:30.740Z,17.50
2022-09-12T01:34:06.700Z,17.50
2022-09-12T01:36:56.122Z,17.60
2022-09-12T01:39:28.827Z,17.50
2022-09-12T01:42:16.407Z,17.60
2022-09-12T01:44:59.173Z,17.50
2022-09-12T01:47:39.231Z,17.50
2022-09-12T01:50:07.269Z,17.40
2022-09-12T01:52:44.018Z,17.40
2022-09-12T01:55:17.575Z,17.40
2022-09-12T01:57:51.146Z,17.40
2022-09-12T02:00:17.843Z,17.40
2022-09-12T02:02:51.859Z,17.30
2022-09-12T02:05:47.684Z,17.30
2022-09-12T02:08:19.160Z,17.30
2022-09-12T02:11:00.511Z,17.30
2022-09-12T02:13:37.516Z,17.30
2022-09-12T02:16:13.098Z,17.30
2022-09-12T02:18:43.200Z,17.30
2022-09-12T02:21:10.025Z,17.20
2022-09-12T02:23:39.215Z,17.20
2022-09-12T02:26:13.015Z,17.20
2022-09-12T02:28:41.829Z,17.20
2022-09-12T02:31:22.971Z,17.20
2022-09-12T02:34:04.719Z,17.20
2022-09-12T02:36:34.458Z,17.10
2022-09-12T02:39:01.324Z,17.10
2022-09-12T02:41:28.086Z,17.10
2022-09-12T02:43:54.710Z,17.10
2022-09-12T02:46:23.219Z,17.10
2022-09-12T02:48:49.853Z,17.10
2022-09-12T02:51:20.301Z,17.00
2022-09-12T02:53:49.533Z,17.00
2022-09-12T02:56:24.779Z,17.00
2022-09-12T02:58:51.930Z,17.00
2022-09-12T03:01:36.797Z,16.90
2022-09-12T03:04:03.370Z,16.90
2022-09-12T03:06:53.159Z,16.90
2022-09-12T03:09:23.242Z,16.90
2022-09-12T03:11:52.518Z,16.90
2022-09-12T03:14:35.620Z,16.90
2022-09-12T03:17:08.092Z,16.90
2022-09-12T03:19:58.691Z,16.80
2022-09-12T03:22:30.054Z,16.80
2022-09-12T03:25:05.663Z,16.80
2022-09-12T03:27:34.854Z,16.80
2022-09-12T03:30:01.660Z,16.80
2022-09-12T03:32:45.040Z,16.80
2022-09-12T03:35:11.948Z,16.70
2022-09-12T03:37:38.977Z,16.70
2022-09-12T03:40:06.434Z,16.70
2022-09-12T03:42:33.077Z,16.70
2022-09-12T03:44:59.723Z,16.70
2022-09-12T03:47:26.285Z,16.70
2022-09-12T03:49:52.871Z,16.70
2022-09-12T03:52:19.826Z,16.70
2022-09-12T03:54:46.403Z,16.60
2022-09-12T03:57:12.970Z,16.60
2022-09-12T03:59:39.560Z,16.60
2022-09-12T04:02:06.524Z,16.60
2022-09-12T04:04:33.302Z,16.60
2022-09-12T04:06:59.892Z,16.50
2022-09-12T04:09:26.461Z,16.50
2022-09-12T04:11:53.011Z,16.50
2022-09-12T04:14:19.571Z,16.50
2022-09-12T04:16:46.209Z,16.50
2022-09-12T04:19:12.823Z,16.50
2022-09-12T04:21:40.094Z,16.50
2022-09-12T04:24:06.853Z,16.50
2022-09-12T04:26:33.485Z,16.50
2022-09-12T04:29:00.095Z,16.50
2022-09-12T04:31:26.947Z,16.50
2022-09-12T04:33:55.009Z,16.40
2022-09-12T04:36:22.814Z,16.50
2022-09-12T04:38:49.732Z,16.50
2022-09-12T04:41:18.415Z,16.40
2022-09-12T04:43:48.307Z,16.30
2022-09-12T04:46:17.239Z,16.20
2022-09-12T04:48:43.953Z,16.20
2022-09-12T04:51:12.184Z,16.20
2022-09-12T04:53:39.093Z,16.20
2022-09-12T04:56:06.955Z,16.30
2022-09-12T04:58:33.567Z,16.20
2022-09-12T05:01:11.609Z,16.20
2022-09-12T05:03:43.402Z,16.30
2022-09-12T05:06:14.665Z,16.30
2022-09-12T05:08:41.395Z,16.30
2022-09-12T05:11:10.175Z,16.40
2022-09-12T05:13:36.919Z,16.40
2022-09-12T05:16:04.575Z,16.40
2022-09-12T05:18:32.260Z,16.40
2022-09-12T05:20:59.346Z,16.40
2022-09-12T05:23:26.278Z,16.50
2022-09-12T05:25:53.579Z,16.50
2022-09-12T05:28:21.212Z,16.50
2022-09-12T05:30:48.436Z,16.50
2022-09-12T05:33:15.431Z,16.50
2022-09-12T05:35:41.980Z,16.50
2022-09-12T05:38:08.569Z,16.50
2022-09-12T05:40:35.251Z,16.50
2022-09-12T05:43:01.877Z,16.60
2022-09-12T05:45:29.427Z,16.60
2022-09-12T05:47:56.042Z,16.60
2022-09-12T05:50:22.703Z,16.50
2022-09-12T05:52:50.523Z,16.50
2022-09-12T05:55:17.223Z,16.50
2022-09-12T05:57:46.003Z,16.50
2022-09-12T06:00:14.609Z,16.50
2022-09-12T06:02:42.464Z,16.30
2022-09-12T06:05:09.176Z,16.30
2022-09-12T06:07:36.087Z,16.20
2022-09-12T06:10:03.560Z,16.20
2022-09-12T06:12:30.211Z,16.10
2022-09-12T06:14:56.788Z,16.10
2022-09-12T06:17:23.478Z,16.10
2022-09-12T06:19:50.948Z,16.10
2022-09-12T06:22:18.820Z,16.10
2022-09-12T06:24:45.575Z,16.10
2022-09-12T06:27:12.475Z,16.20
2022-09-12T06:29:39.072Z,16.10
2022-09-12T06:32:06.915Z,16.20
2022-09-12T06:34:33.819Z,16.10
2022-09-12T06:37:00.440Z,16.10
2022-09-12T06:39:27.040Z,16.10
2022-09-12T06:41:54.211Z,16.10
2022-09-12T06:44:32.975Z,16.10
2022-09-12T06:46:59.599Z,16.20
2022-09-12T06:49:26.343Z,16.20
2022-09-12T06:51:52.901Z,16.30
2022-09-12T06:54:20.054Z,16.20
2022-09-12T06:56:46.718Z,16.30
2022-09-12T06:59:13.378Z,16.30
2022-09-12T07:01:41.752Z,16.30
2022-09-12T07:04:08.715Z,16.40
2022-09-12T07:06:37.097Z,16.50
2022-09-12T07:09:05.432Z,16.50
2022-09-12T07:11:33.707Z,16.50
2022-09-12T07:14:01.302Z,16.60
2022-09-12T07:16:28.250Z,16.70
2022-09-12T07:18:55.808Z,16.70
2022-09-12T07:21:22.810Z,16.80
2022-09-12T07:23:51.705Z,16.80
2022-09-12T07:26:18.612Z,16.80
2022-09-12T07:28:45.158Z,16.80
2022-09-12T07:31:16.217Z,16.90
2022-09-12T07:33:43.795Z,17.00
2022-09-12T07:36:11.813Z,17.10
2022-09-12T07:38:38.876Z,17.20
2022-09-12T07:41:16.714Z,17.30
2022-09-12T07:43:43.376Z,17.30
2022-09-12T07:46:10.434Z,17.30
2022-09-12T07:48:38.059Z,17.20
2022-09-12T07:51:05.631Z,17.30
2022-09-12T07:53:36.869Z,17.20
2022-09-12T07:56:04.407Z,17.30
2022-09-12T07:58:31.512Z,17.40
2022-09-12T08:01:04.909Z,17.50
2022-09-12T08:03:31.671Z,17.60
2022-09-12T08:06:07.226Z,17.60
2022-09-12T08:08:34.275Z,17.70
2022-09-12T08:11:01.716Z,17.70
2022-09-12T08:13:28.845Z,17.80
2022-09-12T08:15:59.819Z,17.80
2022-09-12T08:18:27.045Z,17.90
2022-09-12T08:21:00.563Z,18.00
2022-09-12T08:23:28.656Z,18.10
2022-09-12T08:25:55.799Z,18.20
2022-09-12T08:28:22.442Z,18.30
2022-09-12T08:30:49.403Z,18.40
2022-09-12T08:33:15.978Z,18.50
2022-09-12T08:35:42.578Z,18.60
2022-09-12T08:38:09.557Z,18.60
2022-09-12T08:40:59.399Z,18.70
2022-09-12T08:43:36.443Z,18.70
2022-09-12T08:46:13.947Z,18.90
2022-09-12T08:48:41.256Z,18.90
2022-09-12T08:51:10.911Z,19.00
2022-09-12T08:53:38.328Z,19.10
2022-09-12T08:56:06.004Z,19.10
2022-09-12T08:58:37.332Z,19.20
2022-09-12T09:01:23.867Z,19.30
2022-09-12T09:04:01.149Z,19.40
2022-09-12T09:06:28.043Z,19.50
2022-09-12T09:08:58.437Z,19.50
2022-09-12T09:11:34.210Z,19.60
2022-09-12T09:14:31.758Z,19.70
2022-09-12T09:17:00.136Z,19.70
2022-09-12T09:19:30.713Z,19.80
2022-09-12T09:22:00.211Z,19.90
2022-09-12T09:24:31.338Z,20.00
2022-09-12T09:27:00.038Z,20.00
2022-09-12T09:29:30.046Z,20.00
2022-09-12T09:31:59.369Z,20.10
2022-09-12T09:34:30.052Z,20.20
2022-09-12T09:37:35.688Z,20.30
2022-09-12T09:40:02.719Z,20.30
2022-09-12T09:42:44.717Z,20.40
2022-09-12T09:45:21.460Z,20.50
2022-09-12T09:48:08.709Z,20.60
2022-09-12T09:50:36.135Z,20.60
2022-09-12T09:53:03.792Z,20.70
2022-09-12T09:55:41.246Z,20.80
2022-09-12T09:58:07.995Z,20.80
2022-09-12T10:00:35.938Z,20.90
2022-09-12T10:03:04.726Z,21.00
2022-09-12T10:05:33.479Z,21.10
2022-09-12T10:08:00.351Z,21.10
2022-09-12T10:10:26.939Z,21.20
2022-09-12T10:13:06.989Z,21.20
2022-09-12T10:15:34.614Z,21.30
2022-09-12T10:18:03.037Z,21.30
2022-09-12T10:20:40.360Z,21.40
2022-09-12T10:23:16.329Z,21.50
2022-09-12T10:25:45.859Z,21.60
2022-09-12T10:28:20.487Z,21.70
2022-09-12T10:30:51.435Z,21.70
2022-09-12T10:33:18.245Z,21.70
2022-09-12T10:35:49.380Z,21.80
2022-09-12T10:38:27.262Z,21.90
2022-09-12T10:40:56.128Z,21.90
2022-09-12T10:43:25.665Z,21.90
2022-09-12T10:45:56.466Z,22.00
2022-09-12T10:48:29.907Z,22.10
2022-09-12T10:50:59.411Z,22.20
2022-09-12T10:53:30.997Z,22.20
2022-09-12T10:56:11.914Z,22.20
2022-09-12T10:58:54.176Z,22.20
2022-09-12T11:01:29.066Z,22.30
2022-09-12T11:04:20.340Z,22.30
2022-09-12T11:07:02.357Z,22.40
2022-09-12T11:09:41.026Z,22.40
2022-09-12T11:12:16.804Z,22.60
2022-09-12T11:14:49.601Z,22.60
2022-09-12T11:17:19.305Z,22.70
2022-09-12T11:20:08.483Z,22.80
2022-09-12T11:22:40.968Z,22.80
2022-09-12T11:25:10.614Z,22.90
2022-09-12T11:27:54.924Z,23.00
2022-09-12T11:30:22.060Z,23.00
2022-09-12T11:33:07.657Z,23.10
2022-09-12T11:35:45.579Z,23.10
2022-09-12T11:38:21.025Z,23.20
2022-09-12T11:40:47.613Z,23.20
2022-09-12T11:43:20.214Z,23.30
2022-09-12T11:45:47.835Z,23.40
2022-09-12T11:48:18.106Z,23.50
2022-09-12T11:50:44.907Z,23.60
2022-09-12T11:53:23.890Z,23.60
2022-09-12T11:55:54.661Z,23.70
2022-09-12T11:58:23.507Z,23.70
2022-09-12T12:00:53.464Z,23.70
2022-09-12T12:03:38.994Z,23.70
2022-09-12T12:06:14.105Z,23.80
2022-09-12T12:08:43.104Z,23.90
2022-09-12T12:11:11.219Z,24.00
2022-09-12T12:13:40.526Z,24.20
2022-09-12T12:16:08.791Z,24.20
2022-09-12T12:18:39.199Z,24.40
2022-09-12T12:21:25.342Z,24.50
2022-09-12T12:24:05.053Z,24.60
2022-09-12T12:26:41.373Z,24.70
2022-09-12T12:29:11.746Z,24.80
2022-09-12T12:31:58.723Z,24.80
2022-09-12T12:34:41.721Z,24.90
2022-09-12T12:37:25.561Z,24.90
2022-09-12T12:40:10.104Z,24.90
2022-09-12T12:42:37.153Z,25.00
2022-09-12T12:45:10.070Z,25.00
2022-09-12T12:47:44.361Z,25.00
2022-09-12T12:50:11.187Z,25.10
2022-09-12T12:52:55.356Z,25.30
2022-09-12T12:55:31.202Z,25.40
2022-09-12T12:57:59.070Z,25.50
2022-09-12T13:00:26.094Z,25.50
2022-09-12T13:03:01.126Z,25.60
2022-09-12T13:05:29.754Z,25.70
2022-09-12T13:08:06.215Z,25.80
2022-09-12T13:10:32.826Z,25.70
2022-09-12T13:13:05.156Z,25.60
2022-09-12T13:15:38.115Z,25.70
2022-09-12T13:18:33.002Z,25.70
2022-09-12T13:21:11.937Z,25.70
2022-09-12T13:23:38.665Z,25.80
2022-09-12T13:26:10.509Z,25.90
2022-09-12T13:28:37.173Z,26.00
2022-09-12T13:31:06.924Z,26.10
2022-09-12T13:33:38.096Z,26.30
2022-09-12T13:36:23.548Z,26.30
2022-09-12T13:38:56.146Z,26.30
2022-09-12T13:41:25.861Z,26.20
2022-09-12T13:43:52.571Z,26.20
2022-09-12T13:46:26.684Z,26.10
2022-09-12T13:48:53.810Z,26.20
2022-09-12T13:51:22.754Z,26.10
2022-09-12T13:53:50.615Z,26.20
2022-09-12T13:56:18.500Z,26.30
2022-09-12T13:58:56.831Z,26.40
2022-09-12T14:01:40.524Z,26.50
2022-09-12T14:04:39.628Z,26.50
2022-09-12T14:07:20.365Z,26.70
2022-09-12T14:09:54.073Z,26.90
2022-09-12T14:12:25.353Z,27.00
2022-09-12T14:14:52.850Z,27.20
2022-09-12T14:17:24.578Z,27.20
2022-09-12T14:19:52.763Z,27.20
2022-09-12T14:22:19.506Z,27.30
2022-09-12T14:24:50.011Z,27.20
2022-09-12T14:27:18.734Z,27.20
2022-09-12T14:29:45.647Z,27.20
2022-09-12T14:32:21.034Z,27.30
2022-09-12T14:35:06.383Z,27.40
2022-09-12T14:37:33.182Z,27.30
2022-09-12T14:40:00.183Z,27.30
2022-09-12T14:42:29.672Z,27.10
2022-09-12T14:45:01.314Z,27.10
2022-09-12T14:47:33.540Z,27.20
2022-09-12T14:50:00.329Z,27.20
2022-09-12T14:52:33.725Z,27.10
2022-09-12T14:55:19.510Z,27.00
2022-09-12T14:57:46.312Z,26.90
2022-09-12T15:00:12.929Z,26.90
2022-09-12T15:02:39.806Z,26.90
2022-09-12T15:05:06.317Z,26.80
2022-09-12T15:07:34.547Z,26.80
2022-09-12T15:10:02.670Z,26.90
2022-09-12T15:12:29.266Z,26.90
2022-09-12T15:15:00.911Z,27.00
2022-09-12T15:17:27.474Z,27.10
2022-09-12T15:19:54.121Z,27.30
2022-09-12T15:22:23.675Z,27.30
2022-09-12T15:24:50.463Z,27.40
2022-09-12T15:27:17.034Z,27.50
2022-09-12T15:29:43.618Z,27.50
2022-09-12T15:32:15.014Z,27.60
2022-09-12T15:34:41.586Z,27.50
2022-09-12T15:37:12.611Z,27.50
2022-09-12T15:39:39.299Z,27.60
2022-09-12T15:42:06.010Z,27.60
2022-09-12T15:44:32.558Z,27.50
2022-09-12T15:46:59.137Z,27.40
2022-09-12T15:49:25.673Z,27.30
2022-09-12T15:51:52.230Z,27.30
2022-09-12T15:54:19.466Z,27.40
2022-09-12T15:56:46.019Z,27.70
2022-09-12T15:59:13.506Z,27.90
2022-09-12T16:01:40.166Z,28.20
2022-09-12T16:04:19.661Z,28.60
2022-09-12T16:06:46.292Z,28.80
2022-09-12T16:09:16.651Z,29.20
2022-09-12T16:11:43.512Z,29.50
2022-09-12T16:14:10.224Z,29.80
2022-09-12T16:16:36.916Z,30.20
2022-09-12T16:19:03.849Z,30.40
2022-09-12T16:21:31.763Z,30.70
2022-09-12T16:23:58.373Z,30.90
2022-09-12T16:26:24.902Z,31.30
2022-09-12T16:29:00.645Z,31.60
2022-09-12T16:31:27.626Z,31.70
2022-09-12T16:33:54.414Z,31.40
2022-09-12T16:36:22.302Z,31.60
2022-09-12T16:38:50.239Z,32.10
2022-09-12T16:41:17.669Z,32.20
2022-09-12T16:43:45.413Z,31.90
2022-09-12T16:46:16.362Z,31.30
2022-09-12T16:48:48.093Z,30.80
2022-09-12T16:51:21.828Z,30.40
2022-09-12T16:53:48.829Z,29.80
2022-09-12T16:56:15.474Z,29.30
2022-09-12T16:58:42.572Z,28.90
2022-09-12T17:01:13.617Z,28.40
2022-09-12T17:03:40.726Z,28.10
2022-09-12T17:06:08.796Z,27.80
2022-09-12T17:08:36.622Z,27.60
2022-09-12T17:11:05.136Z,27.40
2022-09-12T17:13:46.890Z,27.20
2022-09-12T17:16:19.145Z,27.00
2022-09-12T17:18:45.819Z,26.80
2022-09-12T17:21:12.686Z,26.70
2022-09-12T17:23:39.592Z,26.50
2022-09-12T17:26:06.747Z,26.40
2022-09-12T17:28:33.310Z,26.30
2022-09-12T17:31:01.295Z,26.10
2022-09-12T17:33:28.663Z,25.90
2022-09-12T17:35:55.601Z,25.90
2022-09-12T17:38:25.400Z,25.80
2022-09-12T17:40:59.379Z,25.70
2022-09-12T17:43:26.335Z,25.60
2022-09-12T17:45:57.185Z,25.40
2022-09-12T17:48:23.808Z,25.30
2022-09-12T17:50:50.641Z,25.30
2022-09-12T17:53:17.796Z,25.20
2022-09-12T17:55:44.399Z,25.10
2022-09-12T17:58:11.197Z,25.00
2022-09-12T18:00:56.567Z,25.00
2022-09-12T18:03:23.600Z,24.90
2022-09-12T18:05:53.986Z,24.80
2022-09-12T18:08:21.614Z,24.70
2022-09-12T18:10:48.589Z,24.60
2022-09-12T18:13:16.049Z,24.60
2022-09-12T18:15:42.760Z,24.50
2022-09-12T18:18:09.494Z,24.50
2022-09-12T18:20:36.178Z,24.40
2022-09-12T18:23:02.765Z,24.40
2022-09-12T18:25:29.313Z,24.30
2022-09-12T18:27:55.888Z,24.10
2022-09-12T18:30:23.439Z,24.10
2022-09-12T18:32:50.477Z,24.10
2022-09-12T18:35:17.312Z,24.00
2022-09-12T18:37:44.819Z,24.00
2022-09-12T18:40:11.590Z,23.90
2022-09-12T18:42:38.266Z,23.90
2022-09-12T18:45:05.051Z,23.70
2022-09-12T18:47:31.906Z,23.70
2022-09-12T18:49:58.553Z,23.70
2022-09-12T18:52:25.117Z,23.60
2022-09-12T18:54:51.668Z,23.60
2022-09-12T18:57:18.245Z,23.50
2022-09-12T18:59:45.026Z,23.50
2022-09-12T19:02:16.070Z,23.40
2022-09-12T19:04:42.636Z,23.40
2022-09-12T19:07:09.589Z,23.40
2022-09-12T19:09:36.282Z,23.40
2022-09-12T19:12:03.005Z,23.30
2022-09-12T19:14:29.651Z,23.30
2022-09-12T19:16:56.284Z,23.20
2022-09-12T19:19:22.915Z,23.20
2022-09-12T19:21:49.494Z,23.10
2022-09-12T19:24:17.001Z,23.10
2022-09-12T19:26:43.908Z,23.10
2022-09-12T19:29:10.846Z,23.00
2022-09-12T19:31:37.460Z,23.00
2022-09-12T19:34:05.524Z,23.00
2022-09-12T19:36:47.862Z,23.00
2022-09-12T19:39:16.163Z,22.90
2022-09-12T19:41:42.928Z,22.90
2022-09-12T19:44:09.534Z,22.80
2022-09-12T19:46:36.269Z,22.80
2022-09-12T19:49:03.302Z,22.80
2022-09-12T19:51:29.885Z,22.70
2022-09-12T19:53:56.538Z,22.70
2022-09-12T19:56:23.169Z,22.70
2022-09-12T19:58:55.760Z,22.60
2022-09-12T20:01:24.906Z,22.60
2022-09-12T20:03:53.722Z,22.60
2022-09-12T20:06:20.539Z,22.60
2022-09-12T20:08:47.331Z,22.50
2022-09-12T20:11:17.846Z,22.50
2022-09-12T20:13:45.127Z,22.50
2022-09-12T20:16:19.038Z,22.50
2022-09-12T20:18:49.319Z,22.50
2022-09-12T20:21:17.023Z,22.50
2022-09-12T20:23:44.221Z,22.50
2022-09-12T20:26:11.423Z,22.50
2022-09-12T20:28:38.621Z,22.50
2022-09-12T20:31:06.781Z,22.40
2022-09-12T20:33:33.468Z,22.40
2022-09-12T20:36:03.090Z,22.40
2022-09-12T20:38:29.785Z,22.40
2022-09-12T20:40:56.398Z,22.40
2022-09-12T20:43:22.974Z,22.30
2022-09-12T20:45:49.575Z,22.30
2022-09-12T20:48:16.105Z,22.30
2022-09-12T20:50:42.651Z,22.20
2022-09-12T20:53:09.212Z,22.20
2022-09-12T20:55:35.802Z,22.10
2022-09-12T20:58:02.390Z,22.00
2022-09-12T21:00:30.426Z,22.00
2022-09-12T21:02:57.060Z,22.00
2022-09-12T21:05:23.671Z,22.10
2022-09-12T21:07:50.234Z,22.00
2022-09-12T21:10:16.979Z,22.00
2022-09-12T21:12:43.563Z,22.00
2022-09-12T21:15:10.474Z,22.00
2022-09-12T21:17:37.067Z,22.00
2022-09-12T21:20:06.067Z,21.90
2022-09-12T21:22:35.848Z,21.80
2022-09-12T21:25:02.412Z,21.80
2022-09-12T21:27:29.167Z,21.80
2022-09-12T21:29:55.876Z,21.80
2022-09-12T21:32:22.696Z,21.90
2022-09-12T21:34:49.257Z,21.90
2022-09-12T21:37:15.806Z,21.90
2022-09-12T21:39:42.412Z,21.80
2022-09-12T21:42:09.363Z,21.80
2022-09-12T21:44:35.918Z,21.80
2022-09-12T21:47:02.533Z,21.70
2022-09-12T21:49:29.120Z,21.70
2022-09-12T21:51:55.690Z,21.80
2022-09-12T21:54:22.311Z,21.70
2022-09-12T21:56:48.868Z,21.70
2022-09-12T21:59:15.427Z,21.60
2022-09-12T22:01:41.994Z,21.50
2022-09-12T22:04:09.445Z,21.50
2022-09-12T22:06:36.403Z,21.50
2022-09-12T22:09:03.639Z,21.50
2022-09-12T22:11:30.230Z,21.50
2022-09-12T22:13:56.786Z,21.50
2022-09-12T22:16:23.617Z,21.50
2022-09-12T22:18:50.704Z,21.50
2022-09-12T22:21:18.623Z,21.50
2022-09-12T22:24:04.034Z,21.50
2022-09-12T22:26:34.886Z,21.40
2022-09-12T22:29:01.977Z,21.40
2022-09-12T22:31:28.714Z,21.40
2022-09-12T22:33:57.032Z,21.40
2022-09-12T22:36:24.919Z,21.40
2022-09-12T22:38:53.714Z,21.30
2022-09-12T22:41:20.332Z,21.30
2022-09-12T22:43:46.974Z,21.30
2022-09-12T22:46:14.087Z,21.30
2022-09-12T22:48:40.837Z,21.20
2022-09-12T22:51:07.438Z,21.20
2022-09-12T22:53:34.511Z,21.20
2022-09-12T22:56:01.349Z,21.20
2022-09-12T22:58:27.903Z,21.10
2022-09-12T23:00:54.927Z,21.10
2022-09-12T23:03:21.643Z,21.00
2022-09-12T23:05:48.522Z,20.90
2022-09-12T23:08:16.258Z,21.00
2022-09-12T23:10:43.907Z,21.00
2022-09-12T23:13:10.839Z,21.00
2022-09-12T23:15:37.394Z,21.00
2022-09-12T23:18:05.217Z,20.90
2022-09-12T23:20:31.988Z,21.00
2022-09-12T23:22:58.539Z,21.00
2022-09-12T23:25:26.254Z,21.10
2022-09-12T23:27:53.400Z,21.10
2022-09-12T23:30:21.254Z,21.10
2022-09-12T23:32:48.749Z,21.10
2022-09-12T23:35:17.967Z,21.20
2022-09-12T23:37:44.679Z,21.20
2022-09-12T23:40:11.565Z,21.20
2022-09-12T23:42:38.155Z,21.20
2022-09-12T23:45:05.179Z,21.20
2022-09-12T23:47:31.755Z,21.20
2022-09-12T23:49:58.347Z,21.20
2022-09-12T23:52:24.932Z,21.20
2022-09-12T23:54:51.489Z,21.20
2022-09-12T23:57:18.102Z,21.20
2022-09-12T23:59:44.683Z,21.20
